Chapman, Maine
Current Conditions -  °F | °C
As of 9:15 AM on Saturday 22 Nov 2014 (Local Time) from KPQI Reporting Station
Overcast Overcast  
Wind Chill:   Ceiling: 6500
Heat Index: 18°   Visibility: 10mi
Dew Point:   Wind: 10mph
Humidity: 63%   Direction: 200°SSW
Pressure: 30.08"   Gusts: NA
Location:  46.5489°N, 68.172°W
Report Text: KPQI 221415Z AUTO 20009KT 10SM OVC065 M08/M14 A3008 RMK AO1
Loading
Personal Weather Stations






























Interactive Weather Map New forecast layout! Learn more

10-Day Weather Forecast

Advertisements
Track Severe Weather on mobile